Overview Statistics Trail Chart Weather Telemetry Raw packets
 

This is the latest recevied weather packets stored in our database for station/object OE5RBO. If no packets are shown the sender has not sent any weather packets the latest 10 day(s).

<< 22 23 24 25 26 27 28 >>
Time Temp. Humidity Pressure Rain* Wind** Luminosity Snow
1788262991 25.56° C 56% 1022.3 hPa 0 mm - - -
1788261790 25.56° C 56% 1022.4 hPa 0 mm - - -
1788261189 22.78° C 65% 1022.4 hPa 0 mm - - -
1788260589 23.33° C 63% 1022.5 hPa 0 mm - - -
1788258788 22.22° C 66% 1022.4 hPa 0 mm - - -
1788258187 21.67° C 68% 1022.6 hPa 0 mm - - -
1788257587 22.22° C 67% 1022.6 hPa 0 mm - - -
1788256987 23.33° C 65% 1022.7 hPa 0 mm - - -
1788256386 22.78° C 64% 1022.6 hPa 0 mm - - -
1788255786 22.78° C 66% 1022.6 hPa 0 mm - - -
1788255186 21.67° C 64% 1022.6 hPa 0 mm - - -
1788254585 22.22° C 65% 1022.6 hPa 0 mm - - -
1788253985 22.22° C 65% 1022.7 hPa 0 mm - - -
1788253385 21.67° C 69% 1022.8 hPa 0 mm - - -
1788252184 21.67° C 69% 1022.7 hPa 0 mm - - -
1788251584 21.11° C 70% 1022.6 hPa 0 mm - - -
1788250983 22.22° C 67% 1022.6 hPa 0 mm - - -
1788249782 21.67° C 71% 1022.6 hPa 0 mm - - -
1788249182 21.67° C 74% 1022.6 hPa 0 mm - - -
1788248582 21.67° C 71% 1022.5 hPa 0 mm - - -
1788247381 22.22° C 74% 1022.5 hPa 0 mm - - -
1788246180 22.22° C 73% 1022.4 hPa 0 mm - - -
1788245580 22.22° C 72% 1022.4 hPa 0 mm - - -
1788244979 21.67° C 71% 1022.3 hPa 0 mm - - -
1788244379 21.11° C 72% 1022.2 hPa 0 mm - - -

* Rain since midnight (hover to see other rain measurements)
** Current wind speed in m/s (hover to see current wind gust speed)